sensor_id;sensor_type;location;lat;lon;timestamp;P1;durP1;ratioP1;P2;durP2;ratioP2
45490;SDS011;31237;45.586;13.782;2023-04-24T00:02:15;7.00;;;5.32;;
45490;SDS011;31237;45.586;13.782;2023-04-24T00:04:41;9.32;;;5.95;;
45490;SDS011;31237;45.586;13.782;2023-04-24T00:07:09;7.55;;;5.18;;
45490;SDS011;31237;45.586;13.782;2023-04-24T00:09:38;9.20;;;5.43;;
45490;SDS011;31237;45.586;13.782;2023-04-24T00:12:03;9.77;;;5.78;;
45490;SDS011;31237;45.586;13.782;2023-04-24T00:14:30;8.38;;;5.93;;
45490;SDS011;31237;45.586;13.782;2023-04-24T00:16:56;10.13;;;6.28;;
45490;SDS011;31237;45.586;13.782;2023-04-24T00:19:22;10.05;;;6.40;;
45490;SDS011;31237;45.586;13.782;2023-04-24T00:21:48;9.20;;;6.57;;
45490;SDS011;31237;45.586;13.782;2023-04-24T00:24:16;10.32;;;7.03;;
45490;SDS011;31237;45.586;13.782;2023-04-24T00:26:43;10.60;;;6.47;;
45490;SDS011;31237;45.586;13.782;2023-04-24T00:29:09;9.48;;;6.47;;
45490;SDS011;31237;45.586;13.782;2023-04-24T00:31:34;10.60;;;6.50;;
45490;SDS011;31237;45.586;13.782;2023-04-24T00:34:00;8.10;;;6.60;;
45490;SDS011;31237;45.586;13.782;2023-04-24T00:36:27;11.27;;;6.93;;
45490;SDS011;31237;45.586;13.782;2023-04-24T00:38:53;11.05;;;6.53;;
45490;SDS011;31237;45.586;13.782;2023-04-24T00:41:19;8.52;;;6.50;;
45490;SDS011;31237;45.586;13.782;2023-04-24T00:43:45;11.10;;;6.25;;
45490;SDS011;31237;45.586;13.782;2023-04-24T00:46:12;9.52;;;6.78;;
45490;SDS011;31237;45.586;13.782;2023-04-24T00:48:38;13.15;;;6.88;;
45490;SDS011;31237;45.586;13.782;2023-04-24T00:51:05;9.60;;;6.63;;
45490;SDS011;31237;45.586;13.782;2023-04-24T00:53:31;8.63;;;6.57;;
45490;SDS011;31237;45.586;13.782;2023-04-24T00:55:57;10.65;;;6.68;;
45490;SDS011;31237;45.586;13.782;2023-04-24T00:58:24;8.70;;;6.78;;
45490;SDS011;31237;45.586;13.782;2023-04-24T01:00:51;8.30;;;6.28;;
45490;SDS011;31237;45.586;13.782;2023-04-24T01:03:22;9.82;;;6.75;;
45490;SDS011;31237;45.586;13.782;2023-04-24T01:05:53;11.23;;;6.82;;
45490;SDS011;31237;45.586;13.782;2023-04-24T01:08:24;13.05;;;6.97;;
45490;SDS011;31237;45.586;13.782;2023-04-24T01:10:51;12.40;;;8.23;;
45490;SDS011;31237;45.586;13.782;2023-04-24T01:13:18;13.13;;;7.18;;
45490;SDS011;31237;45.586;13.782;2023-04-24T01:15:45;13.55;;;6.47;;
45490;SDS011;31237;45.586;13.782;2023-04-24T01:18:11;12.52;;;7.55;;
45490;SDS011;31237;45.586;13.782;2023-04-24T01:20:37;10.88;;;7.10;;
45490;SDS011;31237;45.586;13.782;2023-04-24T01:23:11;12.05;;;6.45;;
45490;SDS011;31237;45.586;13.782;2023-04-24T01:25:37;12.82;;;6.68;;
45490;SDS011;31237;45.586;13.782;2023-04-24T01:28:03;10.60;;;6.70;;
45490;SDS011;31237;45.586;13.782;2023-04-24T01:30:29;12.73;;;6.97;;
45490;SDS011;31237;45.586;13.782;2023-04-24T01:32:56;9.35;;;6.47;;
45490;SDS011;31237;45.586;13.782;2023-04-24T01:35:21;9.93;;;7.18;;
45490;SDS011;31237;45.586;13.782;2023-04-24T01:37:47;8.35;;;6.70;;
45490;SDS011;31237;45.586;13.782;2023-04-24T01:40:13;11.98;;;7.55;;
45490;SDS011;31237;45.586;13.782;2023-04-24T01:42:40;11.23;;;7.57;;
45490;SDS011;31237;45.586;13.782;2023-04-24T01:45:07;12.70;;;7.18;;
45490;SDS011;31237;45.586;13.782;2023-04-24T01:47:35;9.40;;;6.60;;
45490;SDS011;31237;45.586;13.782;2023-04-24T01:50:01;19.98;;;6.40;;
45490;SDS011;31237;45.586;13.782;2023-04-24T01:52:27;22.10;;;6.65;;
45490;SDS011;31237;45.586;13.782;2023-04-24T01:54:53;26.10;;;7.43;;
45490;SDS011;31237;45.586;13.782;2023-04-24T01:57:20;14.55;;;6.57;;
45490;SDS011;31237;45.586;13.782;2023-04-24T01:59:46;8.75;;;6.30;;
45490;SDS011;31237;45.586;13.782;2023-04-24T02:02:12;9.63;;;6.57;;
45490;SDS011;31237;45.586;13.782;2023-04-24T02:04:38;10.88;;;6.43;;
45490;SDS011;31237;45.586;13.782;2023-04-24T02:07:04;11.70;;;6.85;;
45490;SDS011;31237;45.586;13.782;2023-04-24T02:09:30;10.93;;;6.82;;
45490;SDS011;31237;45.586;13.782;2023-04-24T02:11:55;10.98;;;6.75;;
45490;SDS011;31237;45.586;13.782;2023-04-24T02:14:21;11.40;;;6.75;;
45490;SDS011;31237;45.586;13.782;2023-04-24T02:16:47;8.15;;;6.25;;
45490;SDS011;31237;45.586;13.782;2023-04-24T02:19:13;8.18;;;6.20;;
45490;SDS011;31237;45.586;13.782;2023-04-24T02:21:38;9.48;;;6.35;;
45490;SDS011;31237;45.586;13.782;2023-04-24T02:24:04;8.70;;;6.07;;
45490;SDS011;31237;45.586;13.782;2023-04-24T02:26:30;9.75;;;5.65;;
45490;SDS011;31237;45.586;13.782;2023-04-24T02:28:56;8.13;;;5.63;;
45490;SDS011;31237;45.586;13.782;2023-04-24T02:31:22;13.80;;;5.55;;
45490;SDS011;31237;45.586;13.782;2023-04-24T02:33:48;8.77;;;5.43;;
45490;SDS011;31237;45.586;13.782;2023-04-24T02:36:13;12.23;;;6.20;;
45490;SDS011;31237;45.586;13.782;2023-04-24T02:38:39;8.65;;;5.68;;
45490;SDS011;31237;45.586;13.782;2023-04-24T02:41:05;8.73;;;6.40;;
45490;SDS011;31237;45.586;13.782;2023-04-24T02:43:32;9.45;;;5.55;;
45490;SDS011;31237;45.586;13.782;2023-04-24T02:45:58;8.75;;;6.05;;
45490;SDS011;31237;45.586;13.782;2023-04-24T02:48:24;9.88;;;6.20;;
45490;SDS011;31237;45.586;13.782;2023-04-24T02:50:50;13.98;;;6.53;;
45490;SDS011;31237;45.586;13.782;2023-04-24T02:53:16;12.63;;;5.93;;
45490;SDS011;31237;45.586;13.782;2023-04-24T02:55:41;18.67;;;6.50;;
45490;SDS011;31237;45.586;13.782;2023-04-24T02:58:07;13.02;;;5.93;;
45490;SDS011;31237;45.586;13.782;2023-04-24T03:00:33;12.98;;;6.35;;
45490;SDS011;31237;45.586;13.782;2023-04-24T03:02:59;11.48;;;6.20;;
45490;SDS011;31237;45.586;13.782;2023-04-24T03:05:25;13.52;;;6.70;;
45490;SDS011;31237;45.586;13.782;2023-04-24T03:07:52;8.75;;;5.00;;
45490;SDS011;31237;45.586;13.782;2023-04-24T03:10:18;8.85;;;4.88;;
45490;SDS011;31237;45.586;13.782;2023-04-24T03:12:43;8.68;;;4.90;;
45490;SDS011;31237;45.586;13.782;2023-04-24T03:15:09;6.70;;;3.85;;
45490;SDS011;31237;45.586;13.782;2023-04-24T03:17:35;6.22;;;3.80;;
45490;SDS011;31237;45.586;13.782;2023-04-24T03:20:02;5.40;;;3.83;;
45490;SDS011;31237;45.586;13.782;2023-04-24T03:22:30;4.13;;;3.08;;
45490;SDS011;31237;45.586;13.782;2023-04-24T03:24:57;5.57;;;3.20;;
45490;SDS011;31237;45.586;13.782;2023-04-24T03:27:23;4.50;;;2.75;;
45490;SDS011;31237;45.586;13.782;2023-04-24T03:29:48;6.35;;;2.47;;
45490;SDS011;31237;45.586;13.782;2023-04-24T03:32:18;4.20;;;2.28;;
45490;SDS011;31237;45.586;13.782;2023-04-24T03:34:44;3.80;;;2.45;;
45490;SDS011;31237;45.586;13.782;2023-04-24T03:37:10;4.72;;;2.50;;
45490;SDS011;31237;45.586;13.782;2023-04-24T03:39:35;4.00;;;2.85;;
45490;SDS011;31237;45.586;13.782;2023-04-24T03:42:01;4.75;;;2.72;;
45490;SDS011;31237;45.586;13.782;2023-04-24T03:44:27;3.03;;;2.25;;
45490;SDS011;31237;45.586;13.782;2023-04-24T03:46:53;6.28;;;2.58;;
45490;SDS011;31237;45.586;13.782;2023-04-24T03:49:18;3.90;;;2.80;;
45490;SDS011;31237;45.586;13.782;2023-04-24T03:51:44;5.28;;;2.70;;
45490;SDS011;31237;45.586;13.782;2023-04-24T03:54:10;3.72;;;2.75;;
45490;SDS011;31237;45.586;13.782;2023-04-24T03:56:36;4.20;;;2.47;;
45490;SDS011;31237;45.586;13.782;2023-04-24T03:59:01;5.78;;;2.53;;
45490;SDS011;31237;45.586;13.782;2023-04-24T04:01:27;4.93;;;2.72;;
45490;SDS011;31237;45.586;13.782;2023-04-24T04:03:53;3.15;;;2.38;;
45490;SDS011;31237;45.586;13.782;2023-04-24T04:06:19;3.53;;;2.00;;
45490;SDS011;31237;45.586;13.782;2023-04-24T04:08:46;4.13;;;2.88;;
45490;SDS011;31237;45.586;13.782;2023-04-24T04:11:12;4.28;;;2.67;;
45490;SDS011;31237;45.586;13.782;2023-04-24T04:13:37;3.35;;;2.20;;
45490;SDS011;31237;45.586;13.782;2023-04-24T04:16:03;4.13;;;2.72;;
45490;SDS011;31237;45.586;13.782;2023-04-24T04:18:29;4.13;;;2.53;;
45490;SDS011;31237;45.586;13.782;2023-04-24T04:20:54;4.53;;;2.42;;
45490;SDS011;31237;45.586;13.782;2023-04-24T04:23:21;3.28;;;1.90;;
45490;SDS011;31237;45.586;13.782;2023-04-24T04:25:47;4.30;;;2.70;;
45490;SDS011;31237;45.586;13.782;2023-04-24T04:28:14;3.20;;;2.22;;
45490;SDS011;31237;45.586;13.782;2023-04-24T04:30:40;4.88;;;2.53;;
45490;SDS011;31237;45.586;13.782;2023-04-24T04:33:06;4.20;;;2.92;;
45490;SDS011;31237;45.586;13.782;2023-04-24T04:35:33;3.42;;;2.30;;
45490;SDS011;31237;45.586;13.782;2023-04-24T04:37:59;3.58;;;2.08;;
45490;SDS011;31237;45.586;13.782;2023-04-24T04:40:25;5.88;;;3.05;;
45490;SDS011;31237;45.586;13.782;2023-04-24T04:42:52;4.22;;;2.72;;
45490;SDS011;31237;45.586;13.782;2023-04-24T04:45:18;3.05;;;2.15;;
45490;SDS011;31237;45.586;13.782;2023-04-24T04:47:45;6.65;;;3.03;;
45490;SDS011;31237;45.586;13.782;2023-04-24T04:50:11;4.50;;;2.70;;
45490;SDS011;31237;45.586;13.782;2023-04-24T04:52:37;4.47;;;2.90;;
45490;SDS011;31237;45.586;13.782;2023-04-24T04:55:02;4.57;;;2.53;;
45490;SDS011;31237;45.586;13.782;2023-04-24T04:57:28;4.00;;;2.58;;
45490;SDS011;31237;45.586;13.782;2023-04-24T04:59:55;4.38;;;2.60;;
45490;SDS011;31237;45.586;13.782;2023-04-24T05:02:20;3.85;;;2.40;;
45490;SDS011;31237;45.586;13.782;2023-04-24T05:04:46;4.30;;;2.45;;
45490;SDS011;31237;45.586;13.782;2023-04-24T05:07:12;3.22;;;2.35;;
45490;SDS011;31237;45.586;13.782;2023-04-24T05:09:38;4.55;;;2.60;;
45490;SDS011;31237;45.586;13.782;2023-04-24T05:12:03;5.90;;;2.80;;
45490;SDS011;31237;45.586;13.782;2023-04-24T05:14:29;5.07;;;2.60;;
45490;SDS011;31237;45.586;13.782;2023-04-24T05:16:55;5.10;;;2.20;;
45490;SDS011;31237;45.586;13.782;2023-04-24T05:19:21;4.10;;;2.45;;
45490;SDS011;31237;45.586;13.782;2023-04-24T05:21:47;4.65;;;2.60;;
45490;SDS011;31237;45.586;13.782;2023-04-24T05:24:12;4.35;;;2.17;;
45490;SDS011;31237;45.586;13.782;2023-04-24T05:26:38;4.57;;;3.10;;
45490;SDS011;31237;45.586;13.782;2023-04-24T05:29:03;5.30;;;2.88;;
45490;SDS011;31237;45.586;13.782;2023-04-24T05:31:30;4.22;;;2.38;;
45490;SDS011;31237;45.586;13.782;2023-04-24T05:33:55;3.65;;;2.40;;
45490;SDS011;31237;45.586;13.782;2023-04-24T05:36:21;3.40;;;2.50;;
45490;SDS011;31237;45.586;13.782;2023-04-24T05:38:47;4.28;;;2.95;;
45490;SDS011;31237;45.586;13.782;2023-04-24T05:41:12;3.10;;;2.03;;
45490;SDS011;31237;45.586;13.782;2023-04-24T05:43:38;3.90;;;2.10;;
45490;SDS011;31237;45.586;13.782;2023-04-24T05:46:04;3.53;;;1.92;;
45490;SDS011;31237;45.586;13.782;2023-04-24T05:48:29;6.00;;;2.90;;
45490;SDS011;31237;45.586;13.782;2023-04-24T05:50:55;3.97;;;2.53;;
45490;SDS011;31237;45.586;13.782;2023-04-24T05:53:21;3.00;;;1.98;;
45490;SDS011;31237;45.586;13.782;2023-04-24T05:55:47;3.58;;;2.40;;
45490;SDS011;31237;45.586;13.782;2023-04-24T05:58:13;3.72;;;2.33;;
45490;SDS011;31237;45.586;13.782;2023-04-24T06:00:39;3.22;;;2.13;;
45490;SDS011;31237;45.586;13.782;2023-04-24T06:03:07;4.72;;;2.78;;
45490;SDS011;31237;45.586;13.782;2023-04-24T06:05:33;3.92;;;2.22;;
45490;SDS011;31237;45.586;13.782;2023-04-24T06:07:59;5.22;;;3.33;;
45490;SDS011;31237;45.586;13.782;2023-04-24T06:10:25;3.25;;;2.30;;
45490;SDS011;31237;45.586;13.782;2023-04-24T06:12:51;3.25;;;2.42;;
45490;SDS011;31237;45.586;13.782;2023-04-24T06:15:17;3.65;;;2.10;;
45490;SDS011;31237;45.586;13.782;2023-04-24T06:17:42;5.38;;;2.47;;
45490;SDS011;31237;45.586;13.782;2023-04-24T06:20:08;3.92;;;2.42;;
45490;SDS011;31237;45.586;13.782;2023-04-24T06:22:35;3.08;;;2.20;;
45490;SDS011;31237;45.586;13.782;2023-04-24T06:25:01;3.88;;;2.22;;
45490;SDS011;31237;45.586;13.782;2023-04-24T06:27:27;9.43;;;2.90;;
45490;SDS011;31237;45.586;13.782;2023-04-24T06:29:53;4.40;;;2.92;;
45490;SDS011;31237;45.586;13.782;2023-04-24T06:32:23;5.25;;;2.83;;
45490;SDS011;31237;45.586;13.782;2023-04-24T06:34:50;3.90;;;2.65;;
45490;SDS011;31237;45.586;13.782;2023-04-24T06:37:19;3.78;;;2.50;;
45490;SDS011;31237;45.586;13.782;2023-04-24T06:39:45;4.25;;;2.55;;
45490;SDS011;31237;45.586;13.782;2023-04-24T06:42:11;3.78;;;2.38;;
45490;SDS011;31237;45.586;13.782;2023-04-24T06:44:37;4.35;;;2.20;;
45490;SDS011;31237;45.586;13.782;2023-04-24T06:47:08;3.38;;;2.13;;
45490;SDS011;31237;45.586;13.782;2023-04-24T06:49:35;3.92;;;2.40;;
45490;SDS011;31237;45.586;13.782;2023-04-24T06:52:02;5.60;;;2.85;;
45490;SDS011;31237;45.586;13.782;2023-04-24T06:54:28;3.28;;;2.00;;
45490;SDS011;31237;45.586;13.782;2023-04-24T06:56:54;5.65;;;2.45;;
45490;SDS011;31237;45.586;13.782;2023-04-24T06:59:22;3.65;;;2.38;;
45490;SDS011;31237;45.586;13.782;2023-04-24T07:01:51;4.57;;;2.13;;
45490;SDS011;31237;45.586;13.782;2023-04-24T07:04:17;4.05;;;2.67;;
45490;SDS011;31237;45.586;13.782;2023-04-24T07:06:43;3.65;;;2.15;;
45490;SDS011;31237;45.586;13.782;2023-04-24T07:09:11;3.75;;;2.10;;
45490;SDS011;31237;45.586;13.782;2023-04-24T07:11:38;4.85;;;2.88;;
45490;SDS011;31237;45.586;13.782;2023-04-24T07:14:05;2.80;;;1.90;;
45490;SDS011;31237;45.586;13.782;2023-04-24T07:16:31;4.28;;;2.35;;
45490;SDS011;31237;45.586;13.782;2023-04-24T07:18:57;4.88;;;2.60;;
45490;SDS011;31237;45.586;13.782;2023-04-24T07:21:23;3.20;;;2.13;;
45490;SDS011;31237;45.586;13.782;2023-04-24T07:23:48;3.75;;;2.45;;
45490;SDS011;31237;45.586;13.782;2023-04-24T07:26:14;3.75;;;2.10;;
45490;SDS011;31237;45.586;13.782;2023-04-24T07:28:40;3.70;;;2.47;;
45490;SDS011;31237;45.586;13.782;2023-04-24T07:31:06;3.25;;;2.15;;
45490;SDS011;31237;45.586;13.782;2023-04-24T07:33:33;2.72;;;1.80;;
45490;SDS011;31237;45.586;13.782;2023-04-24T07:35:59;3.90;;;2.15;;
45490;SDS011;31237;45.586;13.782;2023-04-24T07:38:25;4.47;;;2.60;;
45490;SDS011;31237;45.586;13.782;2023-04-24T07:40:51;3.95;;;2.50;;
45490;SDS011;31237;45.586;13.782;2023-04-24T07:43:17;4.63;;;2.78;;
45490;SDS011;31237;45.586;13.782;2023-04-24T07:45:45;4.53;;;2.25;;
45490;SDS011;31237;45.586;13.782;2023-04-24T07:48:10;5.10;;;2.67;;
45490;SDS011;31237;45.586;13.782;2023-04-24T07:50:38;4.05;;;2.58;;
45490;SDS011;31237;45.586;13.782;2023-04-24T07:53:04;6.05;;;2.55;;
45490;SDS011;31237;45.586;13.782;2023-04-24T07:55:29;5.40;;;2.75;;
45490;SDS011;31237;45.586;13.782;2023-04-24T07:57:55;3.83;;;2.08;;
45490;SDS011;31237;45.586;13.782;2023-04-24T08:00:21;3.88;;;2.13;;
45490;SDS011;31237;45.586;13.782;2023-04-24T08:02:47;3.97;;;2.53;;
45490;SDS011;31237;45.586;13.782;2023-04-24T08:05:12;4.28;;;2.42;;
45490;SDS011;31237;45.586;13.782;2023-04-24T08:07:38;4.40;;;2.55;;
45490;SDS011;31237;45.586;13.782;2023-04-24T08:10:04;4.53;;;2.65;;
45490;SDS011;31237;45.586;13.782;2023-04-24T08:12:30;5.30;;;2.75;;
45490;SDS011;31237;45.586;13.782;2023-04-24T08:14:56;2.65;;;2.05;;
45490;SDS011;31237;45.586;13.782;2023-04-24T08:17:22;4.20;;;2.80;;
45490;SDS011;31237;45.586;13.782;2023-04-24T08:19:49;15.25;;;11.45;;
45490;SDS011;31237;45.586;13.782;2023-04-24T08:22:16;9.10;;;6.75;;
45490;SDS011;31237;45.586;13.782;2023-04-24T08:24:42;4.22;;;3.10;;
45490;SDS011;31237;45.586;13.782;2023-04-24T08:27:08;4.20;;;3.05;;
45490;SDS011;31237;45.586;13.782;2023-04-24T08:29:35;3.78;;;2.58;;
45490;SDS011;31237;45.586;13.782;2023-04-24T08:32:01;3.35;;;2.13;;
45490;SDS011;31237;45.586;13.782;2023-04-24T08:34:27;3.63;;;2.70;;
45490;SDS011;31237;45.586;13.782;2023-04-24T08:36:52;6.15;;;2.67;;
45490;SDS011;31237;45.586;13.782;2023-04-24T08:39:18;3.50;;;2.50;;
45490;SDS011;31237;45.586;13.782;2023-04-24T08:41:44;6.95;;;4.35;;
45490;SDS011;31237;45.586;13.782;2023-04-24T08:44:10;5.13;;;2.65;;
45490;SDS011;31237;45.586;13.782;2023-04-24T08:46:37;3.67;;;2.05;;
45490;SDS011;31237;45.586;13.782;2023-04-24T08:49:04;2.65;;;1.75;;
45490;SDS011;31237;45.586;13.782;2023-04-24T08:51:30;2.65;;;1.85;;
45490;SDS011;31237;45.586;13.782;2023-04-24T08:53:57;2.15;;;1.77;;
45490;SDS011;31237;45.586;13.782;2023-04-24T08:56:23;4.72;;;2.50;;
45490;SDS011;31237;45.586;13.782;2023-04-24T08:58:53;3.10;;;1.83;;
45490;SDS011;31237;45.586;13.782;2023-04-24T09:01:19;3.22;;;2.00;;
45490;SDS011;31237;45.586;13.782;2023-04-24T09:03:46;3.05;;;1.90;;
45490;SDS011;31237;45.586;13.782;2023-04-24T09:06:14;3.42;;;1.88;;
45490;SDS011;31237;45.586;13.782;2023-04-24T09:08:42;2.58;;;1.65;;
45490;SDS011;31237;45.586;13.782;2023-04-24T09:11:10;3.05;;;1.77;;
45490;SDS011;31237;45.586;13.782;2023-04-24T09:13:37;2.75;;;1.90;;
45490;SDS011;31237;45.586;13.782;2023-04-24T09:16:13;2.72;;;1.80;;
45490;SDS011;31237;45.586;13.782;2023-04-24T09:18:39;3.13;;;1.85;;
45490;SDS011;31237;45.586;13.782;2023-04-24T09:21:08;2.58;;;1.83;;
45490;SDS011;31237;45.586;13.782;2023-04-24T09:23:35;2.75;;;1.80;;
45490;SDS011;31237;45.586;13.782;2023-04-24T09:26:01;2.20;;;1.60;;
45490;SDS011;31237;45.586;13.782;2023-04-24T09:28:35;2.92;;;1.75;;
45490;SDS011;31237;45.586;13.782;2023-04-24T09:31:05;3.50;;;1.80;;
45490;SDS011;31237;45.586;13.782;2023-04-24T09:33:39;2.35;;;1.70;;
45490;SDS011;31237;45.586;13.782;2023-04-24T09:36:05;2.50;;;1.60;;
45490;SDS011;31237;45.586;13.782;2023-04-24T09:41:01;2.80;;;1.75;;
45490;SDS011;31237;45.586;13.782;2023-04-24T09:43:29;2.10;;;1.50;;
45490;SDS011;31237;45.586;13.782;2023-04-24T09:45:56;2.70;;;1.90;;
45490;SDS011;31237;45.586;13.782;2023-04-24T09:48:30;2.70;;;1.75;;
45490;SDS011;31237;45.586;13.782;2023-04-24T09:51:04;2.50;;;1.70;;
45490;SDS011;31237;45.586;13.782;2023-04-24T09:53:35;2.47;;;1.60;;
45490;SDS011;31237;45.586;13.782;2023-04-24T09:56:08;2.92;;;1.70;;
45490;SDS011;31237;45.586;13.782;2023-04-24T09:58:35;3.45;;;1.83;;
45490;SDS011;31237;45.586;13.782;2023-04-24T10:01:01;2.30;;;1.60;;
45490;SDS011;31237;45.586;13.782;2023-04-24T10:03:31;4.43;;;1.90;;
45490;SDS011;31237;45.586;13.782;2023-04-24T10:06:01;2.20;;;1.70;;
45490;SDS011;31237;45.586;13.782;2023-04-24T10:08:33;12.48;;;2.00;;
45490;SDS011;31237;45.586;13.782;2023-04-24T10:11:00;3.35;;;1.85;;
45490;SDS011;31237;45.586;13.782;2023-04-24T10:13:27;2.70;;;1.70;;
45490;SDS011;31237;45.586;13.782;2023-04-24T10:15:53;2.55;;;2.08;;
45490;SDS011;31237;45.586;13.782;2023-04-24T10:18:19;2.08;;;1.40;;
45490;SDS011;31237;45.586;13.782;2023-04-24T10:20:46;3.08;;;1.70;;
45490;SDS011;31237;45.586;13.782;2023-04-24T10:23:12;1.92;;;1.48;;
45490;SDS011;31237;45.586;13.782;2023-04-24T10:25:38;2.08;;;1.50;;
45490;SDS011;31237;45.586;13.782;2023-04-24T10:28:04;3.35;;;1.73;;
45490;SDS011;31237;45.586;13.782;2023-04-24T10:30:31;2.60;;;1.67;;
45490;SDS011;31237;45.586;13.782;2023-04-24T10:33:02;2.72;;;1.92;;
45490;SDS011;31237;45.586;13.782;2023-04-24T10:35:34;2.33;;;1.65;;
45490;SDS011;31237;45.586;13.782;2023-04-24T10:38:08;3.83;;;1.90;;
45490;SDS011;31237;45.586;13.782;2023-04-24T10:40:37;4.33;;;2.00;;
45490;SDS011;31237;45.586;13.782;2023-04-24T10:43:04;3.10;;;2.00;;
45490;SDS011;31237;45.586;13.782;2023-04-24T10:45:32;2.58;;;1.80;;
45490;SDS011;31237;45.586;13.782;2023-04-24T10:47:59;3.08;;;2.00;;
45490;SDS011;31237;45.586;13.782;2023-04-24T10:50:28;3.22;;;1.88;;
45490;SDS011;31237;45.586;13.782;2023-04-24T10:53:04;2.90;;;1.80;;
45490;SDS011;31237;45.586;13.782;2023-04-24T10:58:18;4.22;;;2.58;;
45490;SDS011;31237;45.586;13.782;2023-04-24T11:00:55;4.65;;;2.72;;
45490;SDS011;31237;45.586;13.782;2023-04-24T11:03:25;2.60;;;1.70;;
45490;SDS011;31237;45.586;13.782;2023-04-24T11:08:40;3.20;;;2.10;;
45490;SDS011;31237;45.586;13.782;2023-04-24T11:11:12;3.00;;;2.00;;
45490;SDS011;31237;45.586;13.782;2023-04-24T11:21:57;2.60;;;1.88;;
45490;SDS011;31237;45.586;13.782;2023-04-24T11:27:12;2.25;;;1.58;;
45490;SDS011;31237;45.586;13.782;2023-04-24T11:32:59;2.63;;;1.80;;
45490;SDS011;31237;45.586;13.782;2023-04-24T11:37:38;3.30;;;1.83;;
45490;SDS011;31237;45.586;13.782;2023-04-24T11:40:05;2.40;;;1.70;;
45490;SDS011;31237;45.586;13.782;2023-04-24T11:42:42;3.67;;;2.38;;
45490;SDS011;31237;45.586;13.782;2023-04-24T11:47:41;3.20;;;2.13;;
45490;SDS011;31237;45.586;13.782;2023-04-24T11:50:10;3.03;;;2.00;;
45490;SDS011;31237;45.586;13.782;2023-04-24T11:52:38;1.90;;;1.50;;
45490;SDS011;31237;45.586;13.782;2023-04-24T11:55:22;2.28;;;1.67;;
45490;SDS011;31237;45.586;13.782;2023-04-24T11:57:48;2.50;;;1.60;;
45490;SDS011;31237;45.586;13.782;2023-04-24T12:00:16;2.33;;;1.48;;
45490;SDS011;31237;45.586;13.782;2023-04-24T12:02:46;3.33;;;1.70;;
45490;SDS011;31237;45.586;13.782;2023-04-24T12:05:19;3.95;;;2.22;;
45490;SDS011;31237;45.586;13.782;2023-04-24T12:07:46;13.85;;;6.18;;
45490;SDS011;31237;45.586;13.782;2023-04-24T12:10:11;3.25;;;1.95;;
45490;SDS011;31237;45.586;13.782;2023-04-24T12:12:37;4.32;;;2.30;;
45490;SDS011;31237;45.586;13.782;2023-04-24T12:15:07;2.55;;;1.75;;
45490;SDS011;31237;45.586;13.782;2023-04-24T12:17:34;2.30;;;1.65;;
45490;SDS011;31237;45.586;13.782;2023-04-24T12:20:04;2.40;;;1.73;;
45490;SDS011;31237;45.586;13.782;2023-04-24T12:22:52;2.40;;;1.73;;
45490;SDS011;31237;45.586;13.782;2023-04-24T12:25:20;2.55;;;1.52;;
45490;SDS011;31237;45.586;13.782;2023-04-24T12:27:54;3.17;;;2.30;;
45490;SDS011;31237;45.586;13.782;2023-04-24T12:30:43;2.30;;;1.63;;
45490;SDS011;31237;45.586;13.782;2023-04-24T12:33:16;2.53;;;1.65;;
45490;SDS011;31237;45.586;13.782;2023-04-24T12:35:43;2.75;;;1.65;;
45490;SDS011;31237;45.586;13.782;2023-04-24T12:38:13;1.63;;;1.33;;
45490;SDS011;31237;45.586;13.782;2023-04-24T12:40:40;1.77;;;1.30;;
45490;SDS011;31237;45.586;13.782;2023-04-24T12:43:17;1.50;;;1.20;;
45490;SDS011;31237;45.586;13.782;2023-04-24T12:45:44;1.45;;;1.20;;
45490;SDS011;31237;45.586;13.782;2023-04-24T12:48:10;1.67;;;1.33;;
45490;SDS011;31237;45.586;13.782;2023-04-24T12:50:37;1.75;;;1.20;;
45490;SDS011;31237;45.586;13.782;2023-04-24T12:53:03;1.80;;;1.30;;
45490;SDS011;31237;45.586;13.782;2023-04-24T12:55:29;1.90;;;1.40;;
45490;SDS011;31237;45.586;13.782;2023-04-24T12:57:55;1.77;;;1.30;;
45490;SDS011;31237;45.586;13.782;2023-04-24T13:00:21;3.13;;;1.75;;
45490;SDS011;31237;45.586;13.782;2023-04-24T13:02:47;3.10;;;1.77;;
45490;SDS011;31237;45.586;13.782;2023-04-24T13:05:12;2.90;;;1.67;;
45490;SDS011;31237;45.586;13.782;2023-04-24T13:07:39;1.30;;;1.17;;
45490;SDS011;31237;45.586;13.782;2023-04-24T13:10:05;1.85;;;1.30;;
45490;SDS011;31237;45.586;13.782;2023-04-24T13:12:31;2.25;;;1.40;;
45490;SDS011;31237;45.586;13.782;2023-04-24T13:14:57;2.22;;;1.35;;
45490;SDS011;31237;45.586;13.782;2023-04-24T13:17:24;1.50;;;1.15;;
45490;SDS011;31237;45.586;13.782;2023-04-24T13:19:50;2.33;;;1.73;;
45490;SDS011;31237;45.586;13.782;2023-04-24T13:22:16;1.67;;;1.30;;
45490;SDS011;31237;45.586;13.782;2023-04-24T13:24:45;2.35;;;1.48;;
45490;SDS011;31237;45.586;13.782;2023-04-24T13:27:15;1.90;;;1.40;;
45490;SDS011;31237;45.586;13.782;2023-04-24T13:29:41;1.60;;;1.10;;
45490;SDS011;31237;45.586;13.782;2023-04-24T13:32:07;1.65;;;1.27;;
45490;SDS011;31237;45.586;13.782;2023-04-24T13:34:33;2.03;;;1.50;;
45490;SDS011;31237;45.586;13.782;2023-04-24T13:37:02;2.55;;;1.73;;
45490;SDS011;31237;45.586;13.782;2023-04-24T13:39:28;2.60;;;1.70;;
45490;SDS011;31237;45.586;13.782;2023-04-24T13:41:54;2.33;;;1.60;;
45490;SDS011;31237;45.586;13.782;2023-04-24T13:44:21;3.50;;;1.30;;
45490;SDS011;31237;45.586;13.782;2023-04-24T13:46:49;1.88;;;1.48;;
45490;SDS011;31237;45.586;13.782;2023-04-24T13:49:17;2.50;;;1.50;;
45490;SDS011;31237;45.586;13.782;2023-04-24T13:51:43;2.42;;;1.60;;
45490;SDS011;31237;45.586;13.782;2023-04-24T13:54:09;1.50;;;1.20;;
45490;SDS011;31237;45.586;13.782;2023-04-24T13:56:35;1.23;;;1.10;;
45490;SDS011;31237;45.586;13.782;2023-04-24T13:59:00;1.25;;;1.15;;
45490;SDS011;31237;45.586;13.782;2023-04-24T14:01:27;1.67;;;1.27;;
45490;SDS011;31237;45.586;13.782;2023-04-24T14:03:53;1.42;;;1.13;;
45490;SDS011;31237;45.586;13.782;2023-04-24T14:06:21;1.90;;;1.20;;
45490;SDS011;31237;45.586;13.782;2023-04-24T14:08:48;3.00;;;1.35;;
45490;SDS011;31237;45.586;13.782;2023-04-24T14:11:15;2.40;;;1.33;;
45490;SDS011;31237;45.586;13.782;2023-04-24T14:13:41;2.20;;;1.45;;
45490;SDS011;31237;45.586;13.782;2023-04-24T14:16:08;2.10;;;1.33;;
45490;SDS011;31237;45.586;13.782;2023-04-24T14:18:35;1.60;;;1.20;;
45490;SDS011;31237;45.586;13.782;2023-04-24T14:21:01;1.42;;;1.20;;
45490;SDS011;31237;45.586;13.782;2023-04-24T14:23:30;2.65;;;1.42;;
45490;SDS011;31237;45.586;13.782;2023-04-24T14:25:56;1.27;;;1.13;;
45490;SDS011;31237;45.586;13.782;2023-04-24T14:28:23;1.38;;;1.20;;
45490;SDS011;31237;45.586;13.782;2023-04-24T14:30:49;1.45;;;1.20;;
45490;SDS011;31237;45.586;13.782;2023-04-24T14:33:15;2.65;;;1.35;;
45490;SDS011;31237;45.586;13.782;2023-04-24T14:35:41;1.90;;;1.45;;
45490;SDS011;31237;45.586;13.782;2023-04-24T14:38:08;2.78;;;1.50;;
45490;SDS011;31237;45.586;13.782;2023-04-24T14:40:34;1.20;;;1.10;;
45490;SDS011;31237;45.586;13.782;2023-04-24T14:43:00;1.80;;;1.30;;
45490;SDS011;31237;45.586;13.782;2023-04-24T14:45:26;2.63;;;1.67;;
45490;SDS011;31237;45.586;13.782;2023-04-24T14:47:52;1.50;;;1.20;;
45490;SDS011;31237;45.586;13.782;2023-04-24T14:50:18;1.35;;;1.15;;
45490;SDS011;31237;45.586;13.782;2023-04-24T14:52:45;1.48;;;1.20;;
45490;SDS011;31237;45.586;13.782;2023-04-24T14:55:11;1.88;;;1.35;;
45490;SDS011;31237;45.586;13.782;2023-04-24T14:57:38;2.30;;;1.60;;
45490;SDS011;31237;45.586;13.782;2023-04-24T15:00:07;2.40;;;1.80;;